sensor_id;sensor_type;location;lat;lon;timestamp;P1;durP1;ratioP1;P2;durP2;ratioP2
20142;SDS011;10509;46.476;7.134;2023-02-11T00:00:08;7.43;;;6.73;;
20142;SDS011;10509;46.476;7.134;2023-02-11T00:02:34;6.40;;;5.90;;
20142;SDS011;10509;46.476;7.134;2023-02-11T00:05:00;6.87;;;6.27;;
20142;SDS011;10509;46.476;7.134;2023-02-11T00:07:33;7.20;;;6.50;;
20142;SDS011;10509;46.476;7.134;2023-02-11T00:09:59;6.93;;;6.00;;
20142;SDS011;10509;46.476;7.134;2023-02-11T00:12:29;6.80;;;5.97;;
20142;SDS011;10509;46.476;7.134;2023-02-11T00:14:55;8.07;;;6.47;;
20142;SDS011;10509;46.476;7.134;2023-02-11T00:17:21;7.70;;;6.40;;
20142;SDS011;10509;46.476;7.134;2023-02-11T00:19:48;6.80;;;6.10;;
20142;SDS011;10509;46.476;7.134;2023-02-11T00:22:14;8.03;;;6.20;;
20142;SDS011;10509;46.476;7.134;2023-02-11T00:24:40;7.60;;;5.97;;
20142;SDS011;10509;46.476;7.134;2023-02-11T00:27:06;7.00;;;6.40;;
20142;SDS011;10509;46.476;7.134;2023-02-11T00:29:32;8.47;;;5.67;;
20142;SDS011;10509;46.476;7.134;2023-02-11T00:31:58;6.67;;;5.30;;
20142;SDS011;10509;46.476;7.134;2023-02-11T00:34:29;5.60;;;5.10;;
20142;SDS011;10509;46.476;7.134;2023-02-11T00:36:55;5.97;;;5.43;;
20142;SDS011;10509;46.476;7.134;2023-02-11T00:39:21;5.53;;;5.03;;
20142;SDS011;10509;46.476;7.134;2023-02-11T00:41:47;5.30;;;4.80;;
20142;SDS011;10509;46.476;7.134;2023-02-11T00:44:13;5.37;;;4.87;;
20142;SDS011;10509;46.476;7.134;2023-02-11T00:46:39;6.80;;;5.07;;
20142;SDS011;10509;46.476;7.134;2023-02-11T00:49:05;5.13;;;4.63;;
20142;SDS011;10509;46.476;7.134;2023-02-11T00:51:31;5.47;;;4.97;;
20142;SDS011;10509;46.476;7.134;2023-02-11T00:53:57;5.40;;;5.00;;
20142;SDS011;10509;46.476;7.134;2023-02-11T00:56:23;6.83;;;5.07;;
20142;SDS011;10509;46.476;7.134;2023-02-11T00:58:49;4.93;;;4.50;;
20142;SDS011;10509;46.476;7.134;2023-02-11T01:01:15;6.87;;;4.30;;
20142;SDS011;10509;46.476;7.134;2023-02-11T01:03:41;5.80;;;4.23;;
20142;SDS011;10509;46.476;7.134;2023-02-11T01:06:08;11.87;;;4.27;;
20142;SDS011;10509;46.476;7.134;2023-02-11T01:08:34;5.17;;;4.67;;
20142;SDS011;10509;46.476;7.134;2023-02-11T01:11:02;5.60;;;4.50;;
20142;SDS011;10509;46.476;7.134;2023-02-11T01:13:29;6.80;;;5.20;;
20142;SDS011;10509;46.476;7.134;2023-02-11T01:15:55;5.50;;;5.00;;
20142;SDS011;10509;46.476;7.134;2023-02-11T01:18:21;5.73;;;5.17;;
20142;SDS011;10509;46.476;7.134;2023-02-11T01:20:47;6.13;;;4.47;;
20142;SDS011;10509;46.476;7.134;2023-02-11T01:23:13;5.93;;;5.10;;
20142;SDS011;10509;46.476;7.134;2023-02-11T01:25:39;4.97;;;4.57;;
20142;SDS011;10509;46.476;7.134;2023-02-11T01:28:05;4.73;;;4.23;;
20142;SDS011;10509;46.476;7.134;2023-02-11T01:30:31;5.27;;;4.77;;
20142;SDS011;10509;46.476;7.134;2023-02-11T01:32:57;5.90;;;4.97;;
20142;SDS011;10509;46.476;7.134;2023-02-11T01:35:23;4.53;;;4.13;;
20142;SDS011;10509;46.476;7.134;2023-02-11T01:37:49;6.13;;;3.80;;
20142;SDS011;10509;46.476;7.134;2023-02-11T01:40:15;5.07;;;4.10;;
20142;SDS011;10509;46.476;7.134;2023-02-11T01:42:42;4.00;;;3.60;;
20142;SDS011;10509;46.476;7.134;2023-02-11T01:47:53;6.50;;;4.23;;
20142;SDS011;10509;46.476;7.134;2023-02-11T01:50:19;5.07;;;4.57;;
20142;SDS011;10509;46.476;7.134;2023-02-11T01:52:45;4.67;;;3.80;;
20142;SDS011;10509;46.476;7.134;2023-02-11T01:55:11;4.23;;;3.87;;
20142;SDS011;10509;46.476;7.134;2023-02-11T01:57:58;3.83;;;3.53;;
20142;SDS011;10509;46.476;7.134;2023-02-11T02:00:29;4.00;;;3.60;;
20142;SDS011;10509;46.476;7.134;2023-02-11T02:05:27;2.73;;;2.30;;
20142;SDS011;10509;46.476;7.134;2023-02-11T02:10:23;2.73;;;2.50;;
20142;SDS011;10509;46.476;7.134;2023-02-11T02:12:50;10.60;;;3.13;;
20142;SDS011;10509;46.476;7.134;2023-02-11T02:15:20;7.93;;;3.73;;
20142;SDS011;10509;46.476;7.134;2023-02-11T02:17:52;3.47;;;3.17;;
20142;SDS011;10509;46.476;7.134;2023-02-11T02:25:35;3.17;;;2.80;;
20142;SDS011;10509;46.476;7.134;2023-02-11T02:28:23;2.87;;;2.43;;
20142;SDS011;10509;46.476;7.134;2023-02-11T02:38:50;1.97;;;1.77;;
20142;SDS011;10509;46.476;7.134;2023-02-11T02:41:22;2.50;;;2.30;;
20142;SDS011;10509;46.476;7.134;2023-02-11T02:43:49;2.60;;;2.20;;
20142;SDS011;10509;46.476;7.134;2023-02-11T02:46:17;2.97;;;2.00;;
20142;SDS011;10509;46.476;7.134;2023-02-11T02:48:44;2.23;;;2.03;;
20142;SDS011;10509;46.476;7.134;2023-02-11T02:53:43;2.33;;;2.13;;
20142;SDS011;10509;46.476;7.134;2023-02-11T02:56:21;2.10;;;1.80;;
20142;SDS011;10509;46.476;7.134;2023-02-11T03:09:37;2.27;;;2.00;;
20142;SDS011;10509;46.476;7.134;2023-02-11T03:12:05;2.93;;;2.20;;
20142;SDS011;10509;46.476;7.134;2023-02-11T03:14:31;2.30;;;2.10;;
20142;SDS011;10509;46.476;7.134;2023-02-11T03:16:58;2.10;;;1.77;;
20142;SDS011;10509;46.476;7.134;2023-02-11T03:19:28;1.93;;;1.47;;
20142;SDS011;10509;46.476;7.134;2023-02-11T03:21:55;1.60;;;1.50;;
20142;SDS011;10509;46.476;7.134;2023-02-11T03:24:27;3.20;;;1.80;;
20142;SDS011;10509;46.476;7.134;2023-02-11T03:26:55;2.20;;;2.00;;
20142;SDS011;10509;46.476;7.134;2023-02-11T03:29:30;2.30;;;2.10;;
20142;SDS011;10509;46.476;7.134;2023-02-11T03:34:41;2.00;;;1.60;;
20142;SDS011;10509;46.476;7.134;2023-02-11T03:37:10;2.27;;;2.03;;
20142;SDS011;10509;46.476;7.134;2023-02-11T03:39:40;1.80;;;1.70;;
20142;SDS011;10509;46.476;7.134;2023-02-11T03:42:07;1.97;;;1.50;;
20142;SDS011;10509;46.476;7.134;2023-02-11T03:44:46;2.97;;;1.60;;
20142;SDS011;10509;46.476;7.134;2023-02-11T03:47:13;1.90;;;1.70;;
20142;SDS011;10509;46.476;7.134;2023-02-11T03:49:40;3.73;;;1.33;;
20142;SDS011;10509;46.476;7.134;2023-02-11T03:52:07;2.20;;;1.43;;
20142;SDS011;10509;46.476;7.134;2023-02-11T03:54:35;3.23;;;2.03;;
20142;SDS011;10509;46.476;7.134;2023-02-11T03:57:01;2.07;;;1.87;;
20142;SDS011;10509;46.476;7.134;2023-02-11T03:59:28;1.83;;;1.60;;
20142;SDS011;10509;46.476;7.134;2023-02-11T04:01:54;3.97;;;1.70;;
20142;SDS011;10509;46.476;7.134;2023-02-11T04:04:23;3.17;;;1.87;;
20142;SDS011;10509;46.476;7.134;2023-02-11T04:06:49;2.33;;;1.80;;
20142;SDS011;10509;46.476;7.134;2023-02-11T04:09:15;3.00;;;1.87;;
20142;SDS011;10509;46.476;7.134;2023-02-11T04:11:41;2.60;;;2.13;;
20142;SDS011;10509;46.476;7.134;2023-02-11T04:14:07;3.77;;;1.70;;
20142;SDS011;10509;46.476;7.134;2023-02-11T04:16:33;2.60;;;1.70;;
20142;SDS011;10509;46.476;7.134;2023-02-11T04:18:59;3.17;;;1.90;;
20142;SDS011;10509;46.476;7.134;2023-02-11T04:21:25;2.57;;;1.53;;
20142;SDS011;10509;46.476;7.134;2023-02-11T04:23:51;1.97;;;1.57;;
20142;SDS011;10509;46.476;7.134;2023-02-11T04:26:17;1.80;;;1.30;;
20142;SDS011;10509;46.476;7.134;2023-02-11T04:28:43;2.47;;;1.60;;
20142;SDS011;10509;46.476;7.134;2023-02-11T04:31:09;1.83;;;1.73;;
20142;SDS011;10509;46.476;7.134;2023-02-11T04:33:36;1.97;;;1.57;;
20142;SDS011;10509;46.476;7.134;2023-02-11T04:36:02;2.13;;;1.50;;
20142;SDS011;10509;46.476;7.134;2023-02-11T04:38:28;2.27;;;1.60;;
20142;SDS011;10509;46.476;7.134;2023-02-11T04:40:56;3.37;;;2.23;;
20142;SDS011;10509;46.476;7.134;2023-02-11T04:43:24;4.47;;;1.70;;
20142;SDS011;10509;46.476;7.134;2023-02-11T04:45:50;4.60;;;1.90;;
20142;SDS011;10509;46.476;7.134;2023-02-11T04:48:16;2.37;;;1.77;;
20142;SDS011;10509;46.476;7.134;2023-02-11T04:50:42;1.80;;;1.10;;
20142;SDS011;10509;46.476;7.134;2023-02-11T04:53:08;3.73;;;1.50;;
20142;SDS011;10509;46.476;7.134;2023-02-11T04:55:34;2.23;;;1.93;;
20142;SDS011;10509;46.476;7.134;2023-02-11T04:58:00;1.73;;;1.17;;
20142;SDS011;10509;46.476;7.134;2023-02-11T05:00:26;1.80;;;1.37;;
20142;SDS011;10509;46.476;7.134;2023-02-11T05:02:52;2.83;;;1.70;;
20142;SDS011;10509;46.476;7.134;2023-02-11T05:05:18;1.53;;;1.17;;
20142;SDS011;10509;46.476;7.134;2023-02-11T05:07:44;10.33;;;1.73;;
20142;SDS011;10509;46.476;7.134;2023-02-11T05:10:10;2.27;;;2.07;;
20142;SDS011;10509;46.476;7.134;2023-02-11T05:12:36;4.23;;;1.77;;
20142;SDS011;10509;46.476;7.134;2023-02-11T05:15:02;2.87;;;1.90;;
20142;SDS011;10509;46.476;7.134;2023-02-11T05:17:29;2.20;;;1.60;;
20142;SDS011;10509;46.476;7.134;2023-02-11T05:19:55;2.07;;;1.60;;
20142;SDS011;10509;46.476;7.134;2023-02-11T05:22:21;5.63;;;1.80;;
20142;SDS011;10509;46.476;7.134;2023-02-11T05:24:47;3.77;;;1.83;;
20142;SDS011;10509;46.476;7.134;2023-02-11T05:27:13;2.37;;;1.70;;
20142;SDS011;10509;46.476;7.134;2023-02-11T05:29:39;1.73;;;1.60;;
20142;SDS011;10509;46.476;7.134;2023-02-11T05:32:05;1.47;;;1.37;;
20142;SDS011;10509;46.476;7.134;2023-02-11T05:34:33;8.50;;;2.33;;
20142;SDS011;10509;46.476;7.134;2023-02-11T05:36:59;2.00;;;1.80;;
20142;SDS011;10509;46.476;7.134;2023-02-11T05:39:25;5.23;;;1.77;;
20142;SDS011;10509;46.476;7.134;2023-02-11T05:41:51;9.33;;;2.27;;
20142;SDS011;10509;46.476;7.134;2023-02-11T05:44:17;3.00;;;2.40;;
20142;SDS011;10509;46.476;7.134;2023-02-11T05:46:43;6.60;;;2.00;;
20142;SDS011;10509;46.476;7.134;2023-02-11T05:49:09;5.70;;;5.33;;
20142;SDS011;10509;46.476;7.134;2023-02-11T05:51:35;3.70;;;3.40;;
20142;SDS011;10509;46.476;7.134;2023-02-11T05:54:01;3.17;;;1.67;;
20142;SDS011;10509;46.476;7.134;2023-02-11T05:56:27;1.70;;;1.27;;
20142;SDS011;10509;46.476;7.134;2023-02-11T05:58:53;2.70;;;1.63;;
20142;SDS011;10509;46.476;7.134;2023-02-11T06:01:19;3.50;;;1.30;;
20142;SDS011;10509;46.476;7.134;2023-02-11T06:03:45;3.83;;;3.30;;
20142;SDS011;10509;46.476;7.134;2023-02-11T06:06:13;4.70;;;3.10;;
20142;SDS011;10509;46.476;7.134;2023-02-11T06:08:39;4.77;;;2.80;;
20142;SDS011;10509;46.476;7.134;2023-02-11T06:11:07;9.33;;;6.27;;
20142;SDS011;10509;46.476;7.134;2023-02-11T06:13:33;8.07;;;5.20;;
20142;SDS011;10509;46.476;7.134;2023-02-11T06:15:59;3.03;;;2.30;;
20142;SDS011;10509;46.476;7.134;2023-02-11T06:18:26;3.60;;;2.10;;
20142;SDS011;10509;46.476;7.134;2023-02-11T06:20:52;24.10;;;2.97;;
20142;SDS011;10509;46.476;7.134;2023-02-11T06:23:18;3.27;;;1.53;;
20142;SDS011;10509;46.476;7.134;2023-02-11T06:25:44;2.43;;;1.37;;
20142;SDS011;10509;46.476;7.134;2023-02-11T06:28:10;2.03;;;1.53;;
20142;SDS011;10509;46.476;7.134;2023-02-11T06:30:36;6.03;;;2.10;;
20142;SDS011;10509;46.476;7.134;2023-02-11T06:33:03;2.33;;;1.27;;
20142;SDS011;10509;46.476;7.134;2023-02-11T06:35:29;3.73;;;1.83;;
20142;SDS011;10509;46.476;7.134;2023-02-11T06:37:57;10.87;;;2.50;;
20142;SDS011;10509;46.476;7.134;2023-02-11T06:40:23;18.27;;;3.07;;
20142;SDS011;10509;46.476;7.134;2023-02-11T06:42:49;5.33;;;1.83;;
20142;SDS011;10509;46.476;7.134;2023-02-11T06:45:15;1.97;;;1.53;;
20142;SDS011;10509;46.476;7.134;2023-02-11T06:47:41;3.43;;;1.60;;
20142;SDS011;10509;46.476;7.134;2023-02-11T06:50:09;3.87;;;1.80;;
20142;SDS011;10509;46.476;7.134;2023-02-11T06:52:35;4.63;;;1.70;;
20142;SDS011;10509;46.476;7.134;2023-02-11T06:55:02;15.50;;;3.10;;
20142;SDS011;10509;46.476;7.134;2023-02-11T06:57:28;17.00;;;3.47;;
20142;SDS011;10509;46.476;7.134;2023-02-11T06:59:55;11.13;;;4.60;;
20142;SDS011;10509;46.476;7.134;2023-02-11T07:02:21;8.63;;;4.33;;
20142;SDS011;10509;46.476;7.134;2023-02-11T07:04:47;13.93;;;3.80;;
20142;SDS011;10509;46.476;7.134;2023-02-11T07:07:13;15.13;;;3.77;;
20142;SDS011;10509;46.476;7.134;2023-02-11T07:09:39;13.83;;;4.40;;
20142;SDS011;10509;46.476;7.134;2023-02-11T07:12:05;34.00;;;5.87;;
20142;SDS011;10509;46.476;7.134;2023-02-11T07:14:31;3.43;;;3.10;;
20142;SDS011;10509;46.476;7.134;2023-02-11T07:16:57;5.97;;;4.10;;
20142;SDS011;10509;46.476;7.134;2023-02-11T07:19:23;4.87;;;3.80;;
20142;SDS011;10509;46.476;7.134;2023-02-11T07:21:49;8.43;;;3.53;;
20142;SDS011;10509;46.476;7.134;2023-02-11T07:24:15;15.13;;;3.80;;
20142;SDS011;10509;46.476;7.134;2023-02-11T07:26:41;7.20;;;2.40;;
20142;SDS011;10509;46.476;7.134;2023-02-11T07:29:08;9.00;;;2.83;;
20142;SDS011;10509;46.476;7.134;2023-02-11T07:31:34;5.80;;;2.70;;
20142;SDS011;10509;46.476;7.134;2023-02-11T07:34:00;8.30;;;3.40;;
20142;SDS011;10509;46.476;7.134;2023-02-11T07:36:27;2.97;;;1.87;;
20142;SDS011;10509;46.476;7.134;2023-02-11T07:38:53;2.07;;;1.53;;
20142;SDS011;10509;46.476;7.134;2023-02-11T07:41:20;3.97;;;2.00;;
20142;SDS011;10509;46.476;7.134;2023-02-11T07:43:46;3.83;;;3.37;;
20142;SDS011;10509;46.476;7.134;2023-02-11T07:46:17;6.97;;;3.07;;
20142;SDS011;10509;46.476;7.134;2023-02-11T07:48:43;6.27;;;3.50;;
20142;SDS011;10509;46.476;7.134;2023-02-11T07:51:17;4.63;;;2.47;;
20142;SDS011;10509;46.476;7.134;2023-02-11T07:53:43;3.50;;;2.60;;
20142;SDS011;10509;46.476;7.134;2023-02-11T07:56:10;4.23;;;2.60;;
20142;SDS011;10509;46.476;7.134;2023-02-11T07:58:37;9.20;;;2.77;;
20142;SDS011;10509;46.476;7.134;2023-02-11T08:01:06;3.43;;;2.37;;
20142;SDS011;10509;46.476;7.134;2023-02-11T08:03:33;5.57;;;2.80;;
20142;SDS011;10509;46.476;7.134;2023-02-11T08:06:03;6.17;;;3.03;;
20142;SDS011;10509;46.476;7.134;2023-02-11T08:08:29;5.10;;;2.80;;
20142;SDS011;10509;46.476;7.134;2023-02-11T08:10:55;7.93;;;2.90;;
20142;SDS011;10509;46.476;7.134;2023-02-11T08:13:21;14.47;;;3.80;;
20142;SDS011;10509;46.476;7.134;2023-02-11T08:15:47;29.83;;;6.17;;
20142;SDS011;10509;46.476;7.134;2023-02-11T08:18:13;14.10;;;3.53;;
20142;SDS011;10509;46.476;7.134;2023-02-11T08:20:39;9.63;;;3.63;;
20142;SDS011;10509;46.476;7.134;2023-02-11T08:23:06;24.90;;;5.77;;
20142;SDS011;10509;46.476;7.134;2023-02-11T08:25:32;21.80;;;4.73;;
20142;SDS011;10509;46.476;7.134;2023-02-11T08:27:58;10.90;;;3.63;;
20142;SDS011;10509;46.476;7.134;2023-02-11T08:30:24;16.37;;;5.37;;
20142;SDS011;10509;46.476;7.134;2023-02-11T08:32:50;5.07;;;3.00;;
20142;SDS011;10509;46.476;7.134;2023-02-11T08:35:16;12.37;;;4.07;;
20142;SDS011;10509;46.476;7.134;2023-02-11T08:37:42;3.63;;;3.00;;
20142;SDS011;10509;46.476;7.134;2023-02-11T08:40:08;19.97;;;4.10;;
20142;SDS011;10509;46.476;7.134;2023-02-11T08:42:34;7.60;;;4.20;;
20142;SDS011;10509;46.476;7.134;2023-02-11T08:45:00;8.10;;;3.60;;
20142;SDS011;10509;46.476;7.134;2023-02-11T08:47:26;4.57;;;3.03;;
20142;SDS011;10509;46.476;7.134;2023-02-11T08:49:52;10.67;;;3.73;;
20142;SDS011;10509;46.476;7.134;2023-02-11T08:52:18;10.60;;;8.60;;
20142;SDS011;10509;46.476;7.134;2023-02-11T08:54:44;6.83;;;3.90;;
20142;SDS011;10509;46.476;7.134;2023-02-11T08:57:11;7.87;;;3.60;;
20142;SDS011;10509;46.476;7.134;2023-02-11T08:59:37;9.13;;;3.00;;
20142;SDS011;10509;46.476;7.134;2023-02-11T09:02:04;7.07;;;2.50;;
20142;SDS011;10509;46.476;7.134;2023-02-11T09:04:30;18.17;;;3.50;;
20142;SDS011;10509;46.476;7.134;2023-02-11T09:06:56;6.70;;;3.60;;
20142;SDS011;10509;46.476;7.134;2023-02-11T09:09:22;7.97;;;7.47;;
20142;SDS011;10509;46.476;7.134;2023-02-11T09:11:48;11.23;;;2.87;;
20142;SDS011;10509;46.476;7.134;2023-02-11T09:14:18;80.20;;;8.57;;
20142;SDS011;10509;46.476;7.134;2023-02-11T09:16:44;3.97;;;3.07;;
20142;SDS011;10509;46.476;7.134;2023-02-11T09:19:10;9.47;;;4.03;;
20142;SDS011;10509;46.476;7.134;2023-02-11T09:21:36;6.73;;;3.20;;
20142;SDS011;10509;46.476;7.134;2023-02-11T09:24:03;18.43;;;3.80;;
20142;SDS011;10509;46.476;7.134;2023-02-11T09:26:31;4.17;;;2.50;;
20142;SDS011;10509;46.476;7.134;2023-02-11T09:28:57;14.07;;;3.57;;
20142;SDS011;10509;46.476;7.134;2023-02-11T09:31:25;83.53;;;10.10;;
20142;SDS011;10509;46.476;7.134;2023-02-11T09:33:53;4.33;;;2.10;;
20142;SDS011;10509;46.476;7.134;2023-02-11T09:36:21;12.77;;;4.10;;
20142;SDS011;10509;46.476;7.134;2023-02-11T09:38:47;6.27;;;2.00;;
20142;SDS011;10509;46.476;7.134;2023-02-11T09:43:58;4.57;;;2.60;;
20142;SDS011;10509;46.476;7.134;2023-02-11T09:46:27;29.37;;;5.43;;
20142;SDS011;10509;46.476;7.134;2023-02-11T09:48:54;23.87;;;6.20;;
20142;SDS011;10509;46.476;7.134;2023-02-11T09:51:33;11.17;;;4.93;;
20142;SDS011;10509;46.476;7.134;2023-02-11T09:54:03;4.20;;;2.60;;
20142;SDS011;10509;46.476;7.134;2023-02-11T09:56:30;3.63;;;2.70;;
20142;SDS011;10509;46.476;7.134;2023-02-11T09:58:56;23.67;;;4.57;;
20142;SDS011;10509;46.476;7.134;2023-02-11T10:19:24;7.47;;;1.90;;
20142;SDS011;10509;46.476;7.134;2023-02-11T10:24:29;16.70;;;2.40;;
20142;SDS011;10509;46.476;7.134;2023-02-11T10:26:56;10.47;;;2.07;;
20142;SDS011;10509;46.476;7.134;2023-02-11T10:31:57;23.90;;;18.17;;
20142;SDS011;10509;46.476;7.134;2023-02-11T10:34:24;5.23;;;2.47;;
20142;SDS011;10509;46.476;7.134;2023-02-11T10:36:50;8.20;;;2.10;;
20142;SDS011;10509;46.476;7.134;2023-02-11T10:39:18;6.77;;;2.70;;
20142;SDS011;10509;46.476;7.134;2023-02-11T10:41:46;5.43;;;2.17;;
20142;SDS011;10509;46.476;7.134;2023-02-11T10:44:20;14.13;;;3.03;;
20142;SDS011;10509;46.476;7.134;2023-02-11T10:46:48;2.57;;;1.40;;
20142;SDS011;10509;46.476;7.134;2023-02-11T10:49:31;5.63;;;1.83;;
20142;SDS011;10509;46.476;7.134;2023-02-11T10:54:39;9.03;;;2.50;;
20142;SDS011;10509;46.476;7.134;2023-02-11T10:57:05;9.03;;;1.50;;
20142;SDS011;10509;46.476;7.134;2023-02-11T10:59:32;15.60;;;2.37;;
20142;SDS011;10509;46.476;7.134;2023-02-11T11:02:04;4.40;;;1.23;;
20142;SDS011;10509;46.476;7.134;2023-02-11T11:04:42;6.13;;;1.00;;
20142;SDS011;10509;46.476;7.134;2023-02-11T11:07:28;12.30;;;1.83;;
20142;SDS011;10509;46.476;7.134;2023-02-11T11:13:00;5.33;;;2.13;;
20142;SDS011;10509;46.476;7.134;2023-02-11T11:15:24;4.83;;;2.10;;
20142;SDS011;10509;46.476;7.134;2023-02-11T11:17:52;3.73;;;1.00;;
20142;SDS011;10509;46.476;7.134;2023-02-11T11:20:33;2.33;;;0.97;;
20142;SDS011;10509;46.476;7.134;2023-02-11T11:23:33;11.53;;;1.57;;
20142;SDS011;10509;46.476;7.134;2023-02-11T11:26:03;1.30;;;0.90;;
20142;SDS011;10509;46.476;7.134;2023-02-11T11:31:12;5.73;;;1.43;;
20142;SDS011;10509;46.476;7.134;2023-02-11T11:33:40;20.30;;;3.50;;
20142;SDS011;10509;46.476;7.134;2023-02-11T11:36:09;8.30;;;1.87;;
20142;SDS011;10509;46.476;7.134;2023-02-11T11:38:37;7.87;;;1.40;;
20142;SDS011;10509;46.476;7.134;2023-02-11T11:46:27;4.63;;;1.40;;
20142;SDS011;10509;46.476;7.134;2023-02-11T11:49:37;19.13;;;2.03;;
20142;SDS011;10509;46.476;7.134;2023-02-11T11:51:44;5.60;;;1.40;;
20142;SDS011;10509;46.476;7.134;2023-02-11T11:54:14;2.53;;;0.90;;
20142;SDS011;10509;46.476;7.134;2023-02-11T11:57:01;3.30;;;1.07;;
20142;SDS011;10509;46.476;7.134;2023-02-11T11:59:30;12.33;;;1.20;;
20142;SDS011;10509;46.476;7.134;2023-02-11T12:04:38;3.73;;;0.90;;
20142;SDS011;10509;46.476;7.134;2023-02-11T12:07:16;2.63;;;1.00;;
20142;SDS011;10509;46.476;7.134;2023-02-11T12:12:25;28.63;;;3.93;;
20142;SDS011;10509;46.476;7.134;2023-02-11T12:25:21;1.57;;;0.80;;
20142;SDS011;10509;46.476;7.134;2023-02-11T12:32:52;2.13;;;0.63;;
20142;SDS011;10509;46.476;7.134;2023-02-11T12:35:27;1.40;;;0.67;;
20142;SDS011;10509;46.476;7.134;2023-02-11T12:48:23;3.67;;;0.73;;
20142;SDS011;10509;46.476;7.134;2023-02-11T12:50:56;6.30;;;1.20;;
20142;SDS011;10509;46.476;7.134;2023-02-11T12:53:40;4.97;;;1.27;;
20142;SDS011;10509;46.476;7.134;2023-02-11T12:56:18;2.67;;;1.00;;
20142;SDS011;10509;46.476;7.134;2023-02-11T12:58:46;3.30;;;1.00;;
20142;SDS011;10509;46.476;7.134;2023-02-11T13:03:43;2.13;;;0.87;;
20142;SDS011;10509;46.476;7.134;2023-02-11T13:06:10;4.23;;;0.90;;
20142;SDS011;10509;46.476;7.134;2023-02-11T13:08:42;8.90;;;1.47;;
20142;SDS011;10509;46.476;7.134;2023-02-11T13:11:11;2.33;;;2.03;;
20142;SDS011;10509;46.476;7.134;2023-02-11T13:21:36;6.10;;;1.47;;
20142;SDS011;10509;46.476;7.134;2023-02-11T13:24:06;2.70;;;1.50;;
20142;SDS011;10509;46.476;7.134;2023-02-11T13:29:50;7.20;;;2.00;;
20142;SDS011;10509;46.476;7.134;2023-02-11T13:32:24;2.00;;;1.50;;
20142;SDS011;10509;46.476;7.134;2023-02-11T13:39:58;3.17;;;1.63;;
20142;SDS011;10509;46.476;7.134;2023-02-11T13:42:24;4.23;;;2.17;;
20142;SDS011;10509;46.476;7.134;2023-02-11T13:44:51;7.80;;;2.53;;
20142;SDS011;10509;46.476;7.134;2023-02-11T13:47:30;4.43;;;2.33;;
20142;SDS011;10509;46.476;7.134;2023-02-11T13:49:57;4.90;;;2.40;;
20142;SDS011;10509;46.476;7.134;2023-02-11T13:52:33;4.03;;;2.57;;
20142;SDS011;10509;46.476;7.134;2023-02-11T13:57:34;14.80;;;4.00;;
20142;SDS011;10509;46.476;7.134;2023-02-11T14:00:05;3.37;;;3.00;;
20142;SDS011;10509;46.476;7.134;2023-02-11T14:02:36;3.13;;;2.53;;
20142;SDS011;10509;46.476;7.134;2023-02-11T14:05:37;4.17;;;3.80;;
20142;SDS011;10509;46.476;7.134;2023-02-11T14:08:22;5.07;;;4.03;;
20142;SDS011;10509;46.476;7.134;2023-02-11T14:16:22;4.13;;;3.03;;
20142;SDS011;10509;46.476;7.134;2023-02-11T14:24:40;4.30;;;3.60;;
20142;SDS011;10509;46.476;7.134;2023-02-11T14:26:46;9.00;;;3.77;;
20142;SDS011;10509;46.476;7.134;2023-02-11T14:29:38;5.23;;;3.57;;
20142;SDS011;10509;46.476;7.134;2023-02-11T14:32:07;6.73;;;3.60;;
20142;SDS011;10509;46.476;7.134;2023-02-11T14:39:48;4.07;;;3.67;;
20142;SDS011;10509;46.476;7.134;2023-02-11T14:42:18;3.80;;;3.50;;
20142;SDS011;10509;46.476;7.134;2023-02-11T14:44:49;5.50;;;4.10;;
20142;SDS011;10509;46.476;7.134;2023-02-11T14:47:18;14.37;;;4.73;;
20142;SDS011;10509;46.476;7.134;2023-02-11T14:49:45;4.80;;;4.10;;
20142;SDS011;10509;46.476;7.134;2023-02-11T14:54:40;6.70;;;4.13;;
20142;SDS011;10509;46.476;7.134;2023-02-11T14:59:34;4.07;;;3.20;;
20142;SDS011;10509;46.476;7.134;2023-02-11T15:02:00;4.43;;;3.83;;
20142;SDS011;10509;46.476;7.134;2023-02-11T15:04:32;4.13;;;3.33;;
20142;SDS011;10509;46.476;7.134;2023-02-11T15:07:03;11.97;;;4.00;;
20142;SDS011;10509;46.476;7.134;2023-02-11T15:09:40;8.40;;;3.57;;
20142;SDS011;10509;46.476;7.134;2023-02-11T15:12:15;8.10;;;3.40;;
20142;SDS011;10509;46.476;7.134;2023-02-11T15:14:44;4.00;;;3.67;;
20142;SDS011;10509;46.476;7.134;2023-02-11T15:17:11;5.90;;;4.50;;
20142;SDS011;10509;46.476;7.134;2023-02-11T15:19:40;5.00;;;3.97;;
20142;SDS011;10509;46.476;7.134;2023-02-11T15:22:19;7.27;;;4.10;;
20142;SDS011;10509;46.476;7.134;2023-02-11T15:24:56;4.20;;;3.63;;
20142;SDS011;10509;46.476;7.134;2023-02-11T15:27:22;11.33;;;3.87;;
20142;SDS011;10509;46.476;7.134;2023-02-11T15:29:50;6.17;;;4.20;;
20142;SDS011;10509;46.476;7.134;2023-02-11T15:34:42;4.63;;;3.93;;
20142;SDS011;10509;46.476;7.134;2023-02-11T15:37:12;6.87;;;4.97;;
20142;SDS011;10509;46.476;7.134;2023-02-11T15:39:39;5.87;;;4.47;;
20142;SDS011;10509;46.476;7.134;2023-02-11T15:42:25;5.27;;;4.30;;
20142;SDS011;10509;46.476;7.134;2023-02-11T15:47:33;4.77;;;4.13;;
20142;SDS011;10509;46.476;7.134;2023-02-11T15:50:00;7.17;;;4.00;;
20142;SDS011;10509;46.476;7.134;2023-02-11T15:52:26;9.17;;;4.70;;
20142;SDS011;10509;46.476;7.134;2023-02-11T15:54:53;6.93;;;4.67;;
20142;SDS011;10509;46.476;7.134;2023-02-11T15:57:20;5.13;;;4.37;;
20142;SDS011;10509;46.476;7.134;2023-02-11T15:59:48;25.73;;;6.33;;
20142;SDS011;10509;46.476;7.134;2023-02-11T16:02:19;47.87;;;6.90;;
20142;SDS011;10509;46.476;7.134;2023-02-11T16:10:02;16.97;;;5.07;;
20142;SDS011;10509;46.476;7.134;2023-02-11T16:12:28;16.93;;;6.57;;
20142;SDS011;10509;46.476;7.134;2023-02-11T16:14:54;13.43;;;4.93;;
20142;SDS011;10509;46.476;7.134;2023-02-11T16:17:24;8.20;;;4.63;;
20142;SDS011;10509;46.476;7.134;2023-02-11T16:19:52;7.30;;;4.57;;
20142;SDS011;10509;46.476;7.134;2023-02-11T16:22:19;27.97;;;6.13;;
20142;SDS011;10509;46.476;7.134;2023-02-11T16:24:47;17.67;;;5.50;;
20142;SDS011;10509;46.476;7.134;2023-02-11T16:29:47;10.17;;;5.03;;
20142;SDS011;10509;46.476;7.134;2023-02-11T16:34:40;45.13;;;13.00;;
20142;SDS011;10509;46.476;7.134;2023-02-11T16:37:07;30.17;;;11.33;;
20142;SDS011;10509;46.476;7.134;2023-02-11T16:39:33;73.23;;;17.10;;
20142;SDS011;10509;46.476;7.134;2023-02-11T16:41:59;18.43;;;11.17;;
20142;SDS011;10509;46.476;7.134;2023-02-11T16:44:25;25.40;;;12.63;;
20142;SDS011;10509;46.476;7.134;2023-02-11T16:46:51;50.20;;;11.47;;
20142;SDS011;10509;46.476;7.134;2023-02-11T16:49:51;18.83;;;10.13;;
20142;SDS011;10509;46.476;7.134;2023-02-11T16:52:11;10.47;;;8.10;;
20142;SDS011;10509;46.476;7.134;2023-02-11T16:54:38;25.10;;;10.27;;
20142;SDS011;10509;46.476;7.134;2023-02-11T16:57:08;11.47;;;10.33;;
20142;SDS011;10509;46.476;7.134;2023-02-11T16:59:35;29.60;;;12.27;;
20142;SDS011;10509;46.476;7.134;2023-02-11T17:02:01;23.63;;;12.40;;
20142;SDS011;10509;46.476;7.134;2023-02-11T17:04:29;10.00;;;8.30;;
20142;SDS011;10509;46.476;7.134;2023-02-11T17:06:57;11.67;;;10.47;;
20142;SDS011;10509;46.476;7.134;2023-02-11T17:09:24;18.07;;;9.97;;
20142;SDS011;10509;46.476;7.134;2023-02-11T17:11:51;22.40;;;8.63;;
20142;SDS011;10509;46.476;7.134;2023-02-11T17:14:17;10.60;;;7.70;;
20142;SDS011;10509;46.476;7.134;2023-02-11T17:16:44;10.13;;;8.10;;
20142;SDS011;10509;46.476;7.134;2023-02-11T17:19:11;7.97;;;7.47;;
20142;SDS011;10509;46.476;7.134;2023-02-11T17:21:39;24.33;;;7.80;;
20142;SDS011;10509;46.476;7.134;2023-02-11T17:24:05;8.07;;;5.63;;
20142;SDS011;10509;46.476;7.134;2023-02-11T17:26:31;8.40;;;5.60;;
20142;SDS011;10509;46.476;7.134;2023-02-11T17:29:00;5.63;;;5.13;;
20142;SDS011;10509;46.476;7.134;2023-02-11T17:31:26;34.30;;;6.87;;
20142;SDS011;10509;46.476;7.134;2023-02-11T17:33:52;41.20;;;7.07;;